Aurskog, Norway

7:57 PM CET on December 10, 2016 (GMT +0100)
Briskebyveien | | Change Station

Elev 442 ft 59.89 °N, 11.57 °E | Updated 7 minutes ago

Overcast
Overcast
35.4 °F
Feels Like 35 °F
N
0.0
Wind Variable Wind from North
Gusts 0.6 mph

Today
High -- | Low -- °F
--% Chance of Precip.
Yesterday
High -- | Low -- °F
Precip. -- in
Pressure 29.71 in
Visibility 1.4 miles
Clouds
Windchill 35 °F
Dew Point 35 °F
Humidity 97%
Rainfall 0.23 in
Snow Depth Not available.
9:04 AM 3:08 PM
Waxing Gibbous, 85% visible
METAR ENGM 101850Z VRB02KT 2200 BR VV002 01/00 Q1006 TEMPO 0700 FG
Pressure 29.71 in
Visibility 1.4 miles
Clouds
Windchill 35 °F
Dew Point 35 °F
Humidity 97%
Rainfall 0.23 in
Snow Depth Not available.
9:04 AM 3:08 PM
Waxing Gibbous, 85% visible
METAR ENGM 101850Z VRB02KT 2200 BR VV002 01/00 Q1006 TEMPO 0700 FG

10-Day Weather Forecast

×

Almanac

Astronomy

Dec. 10, 2016 Rise Set
Actual Time
Civil Twilight
Nautical Twilight
Astronomical Twilight
Moon
Length of Visible Light
Length of Day
Tomorrow will be .
, % of the Moon is Illuminated

Today's Extremes

Country Highs Country Lows

Community

WunderPhotos

Upload Photos

1,956,620 photos uploaded!

WunderBlog® & News

Nearby

Air Quality

  Air Quality AQ Index Pollutant
Not available.

Snow Depth

Station Depth Elevation

Earthquake Activity

City Distance Mag. Time & Date
Minimum magnitude displayed is 2.5.

Coastal Water Temperatures

Place Temperature

Stations

Nearby Weather Stations

Station Location Temp. Windchill Dew Point Humidity Wind Precip. Elev Updated Type